createdAt,value
2023-08-15T00:00:25.185Z,100.00
2023-08-15T00:02:53.230Z,100.00
2023-08-15T00:05:21.194Z,100.00
2023-08-15T00:08:03.235Z,100.00
2023-08-15T00:10:31.264Z,100.00
2023-08-15T00:12:59.317Z,100.00
2023-08-15T00:15:27.548Z,100.00
2023-08-15T00:17:55.500Z,100.00
2023-08-15T00:20:23.746Z,100.00
2023-08-15T00:22:51.740Z,100.00
2023-08-15T00:25:21.355Z,100.00
2023-08-15T00:27:49.290Z,100.00
2023-08-15T00:30:17.310Z,100.00
2023-08-15T00:32:45.252Z,100.00
2023-08-15T00:35:13.751Z,100.00
2023-08-15T00:37:41.676Z,100.00
2023-08-15T00:40:10.809Z,100.00
2023-08-15T00:42:40.149Z,100.00
2023-08-15T00:45:08.932Z,100.00
2023-08-15T00:47:37.101Z,100.00
2023-08-15T00:50:05.841Z,100.00
2023-08-15T00:52:33.784Z,100.00
2023-08-15T00:55:02.033Z,100.00
2023-08-15T00:57:30.135Z,100.00
2023-08-15T00:59:59.616Z,100.00
2023-08-15T01:02:27.615Z,100.00
2023-08-15T01:04:55.582Z,100.00
2023-08-15T01:07:23.727Z,100.00
2023-08-15T01:09:51.766Z,100.00
2023-08-15T01:12:25.603Z,100.00
2023-08-15T01:14:57.531Z,100.00
2023-08-15T01:17:30.960Z,100.00
2023-08-15T01:20:00.103Z,100.00
2023-08-15T01:22:30.216Z,100.00
2023-08-15T01:25:00.268Z,100.00
2023-08-15T01:27:28.169Z,100.00
2023-08-15T01:29:56.563Z,100.00
2023-08-15T01:32:29.620Z,100.00
2023-08-15T01:35:05.751Z,100.00
2023-08-15T01:37:33.951Z,100.00
2023-08-15T01:40:04.924Z,100.00
2023-08-15T01:42:33.692Z,100.00
2023-08-15T01:45:02.776Z,100.00
2023-08-15T01:47:32.588Z,100.00
2023-08-15T01:50:01.053Z,100.00
2023-08-15T01:52:29.026Z,100.00
2023-08-15T01:54:57.042Z,100.00
2023-08-15T01:57:26.323Z,100.00
2023-08-15T01:59:54.936Z,100.00
2023-08-15T02:02:22.861Z,100.00
2023-08-15T02:04:50.942Z,100.00
2023-08-15T02:07:19.628Z,100.00
2023-08-15T02:09:47.830Z,100.00
2023-08-15T02:12:16.789Z,100.00
2023-08-15T02:14:46.814Z,100.00
2023-08-15T02:17:14.749Z,100.00
2023-08-15T02:19:43.214Z,100.00
2023-08-15T02:22:11.115Z,100.00
2023-08-15T02:24:39.086Z,100.00
2023-08-15T02:27:07.259Z,100.00
2023-08-15T02:29:35.254Z,100.00
2023-08-15T02:32:04.924Z,100.00
2023-08-15T02:34:32.863Z,100.00
2023-08-15T02:37:00.824Z,100.00
2023-08-15T02:39:28.762Z,100.00
2023-08-15T02:41:56.662Z,100.00
2023-08-15T02:44:24.754Z,100.00
2023-08-15T02:46:52.845Z,100.00
2023-08-15T02:49:22.250Z,100.00
2023-08-15T02:51:50.788Z,100.00
2023-08-15T02:54:18.756Z,100.00
2023-08-15T02:56:46.744Z,100.00
2023-08-15T02:59:14.690Z,100.00
2023-08-15T03:01:42.634Z,100.00
2023-08-15T03:04:11.173Z,100.00
2023-08-15T03:06:40.382Z,100.00
2023-08-15T03:09:08.223Z,100.00
2023-08-15T03:11:36.129Z,100.00
2023-08-15T03:14:04.122Z,100.00
2023-08-15T03:16:32.094Z,100.00
2023-08-15T03:19:00.080Z,100.00
2023-08-15T03:21:28.200Z,100.00
2023-08-15T03:23:58.080Z,100.00
2023-08-15T03:26:27.071Z,100.00
2023-08-15T03:28:57.325Z,100.00
2023-08-15T03:31:25.657Z,100.00
2023-08-15T03:33:57.640Z,100.00
2023-08-15T03:36:26.028Z,100.00
2023-08-15T03:38:54.757Z,100.00
2023-08-15T03:41:23.985Z,100.00
2023-08-15T03:43:51.894Z,100.00
2023-08-15T03:46:21.100Z,100.00
2023-08-15T03:48:49.071Z,100.00
2023-08-15T03:51:32.379Z,100.00
2023-08-15T03:54:05.234Z,100.00
2023-08-15T03:56:34.572Z,100.00
2023-08-15T03:59:02.493Z,100.00
2023-08-15T04:01:30.562Z,100.00
2023-08-15T04:03:58.889Z,100.00
2023-08-15T04:06:26.820Z,100.00
2023-08-15T04:08:54.760Z,100.00
2023-08-15T04:11:22.702Z,100.00
2023-08-15T04:13:52.073Z,100.00
2023-08-15T04:16:20.102Z,100.00
2023-08-15T04:18:48.113Z,100.00
2023-08-15T04:21:16.176Z,100.00
2023-08-15T04:23:43.993Z,100.00
2023-08-15T04:26:12.653Z,100.00
2023-08-15T04:28:40.535Z,100.00
2023-08-15T04:31:09.931Z,100.00
2023-08-15T04:33:37.923Z,100.00
2023-08-15T04:36:05.992Z,100.00
2023-08-15T04:38:34.235Z,100.00
2023-08-15T04:41:02.720Z,100.00
2023-08-15T04:43:30.570Z,100.00
2023-08-15T04:45:58.565Z,100.00
2023-08-15T04:48:27.896Z,100.00
2023-08-15T04:50:56.055Z,100.00
2023-08-15T04:53:23.965Z,100.00
2023-08-15T04:55:52.220Z,100.00
2023-08-15T04:58:20.154Z,100.00
2023-08-15T05:00:48.815Z,100.00
2023-08-15T05:03:16.730Z,100.00
2023-08-15T05:05:46.198Z,100.00
2023-08-15T05:08:14.318Z,100.00
2023-08-15T05:10:42.196Z,100.00
2023-08-15T05:13:10.621Z,100.00
2023-08-15T05:15:38.740Z,100.00
2023-08-15T05:18:07.716Z,100.00
2023-08-15T05:20:35.669Z,100.00
2023-08-15T05:23:07.036Z,100.00
2023-08-15T05:25:36.618Z,100.00
2023-08-15T05:28:06.044Z,100.00
2023-08-15T05:30:34.189Z,100.00
2023-08-15T05:33:03.595Z,100.00
2023-08-15T05:35:31.686Z,100.00
2023-08-15T05:37:59.915Z,100.00
2023-08-15T05:40:30.970Z,100.00
2023-08-15T05:42:58.881Z,100.00
2023-08-15T05:45:26.787Z,100.00
2023-08-15T05:47:54.769Z,100.00
2023-08-15T05:50:22.882Z,100.00
2023-08-15T05:52:50.746Z,100.00
2023-08-15T05:55:18.857Z,100.00
2023-08-15T05:57:48.152Z,100.00
2023-08-15T06:00:16.287Z,100.00
2023-08-15T06:02:44.259Z,100.00
2023-08-15T06:05:12.239Z,100.00
2023-08-15T06:07:42.041Z,100.00
2023-08-15T06:10:10.488Z,100.00
2023-08-15T06:12:38.464Z,100.00
2023-08-15T06:15:08.561Z,100.00
2023-08-15T06:17:36.828Z,100.00
2023-08-15T06:20:06.592Z,100.00
2023-08-15T06:22:34.553Z,100.00
2023-08-15T06:25:03.266Z,100.00
2023-08-15T06:27:31.255Z,100.00
2023-08-15T06:29:59.170Z,100.00
2023-08-15T06:32:29.465Z,100.00
2023-08-15T06:34:57.700Z,100.00
2023-08-15T06:37:25.805Z,100.00
2023-08-15T06:39:53.726Z,100.00
2023-08-15T06:42:21.597Z,100.00
2023-08-15T06:44:52.010Z,100.00
2023-08-15T06:47:20.030Z,100.00
2023-08-15T06:49:49.514Z,100.00
2023-08-15T06:52:17.474Z,100.00
2023-08-15T06:54:45.434Z,100.00
2023-08-15T06:57:13.358Z,100.00
2023-08-15T06:59:41.377Z,100.00
2023-08-15T07:02:09.359Z,100.00
2023-08-15T07:04:41.243Z,100.00
2023-08-15T07:07:10.864Z,100.00
2023-08-15T07:09:38.787Z,100.00
2023-08-15T07:12:07.118Z,100.00
2023-08-15T07:14:35.027Z,97.47
2023-08-15T07:17:03.397Z,96.60
2023-08-15T07:19:31.341Z,94.97
2023-08-15T07:21:59.282Z,92.28
2023-08-15T07:24:28.719Z,92.84
2023-08-15T07:26:56.730Z,91.29
2023-08-15T07:29:24.571Z,90.56
2023-08-15T07:31:52.615Z,90.15
2023-08-15T07:34:20.815Z,89.46
2023-08-15T07:36:50.034Z,88.12
2023-08-15T07:39:17.956Z,86.74
2023-08-15T07:41:47.178Z,82.08
2023-08-15T07:44:15.263Z,76.81
2023-08-15T07:46:43.168Z,71.46
2023-08-15T07:49:11.345Z,66.54
2023-08-15T07:51:39.254Z,60.10
2023-08-15T07:54:07.294Z,58.51
2023-08-15T07:56:35.345Z,59.79
2023-08-15T07:59:05.367Z,59.23
2023-08-15T08:01:33.298Z,57.34
2023-08-15T08:04:01.775Z,53.95
2023-08-15T08:09:01.129Z,53.57
2023-08-15T08:11:29.017Z,51.32
2023-08-15T08:13:57.058Z,50.30
2023-08-15T08:16:26.382Z,50.10
2023-08-15T08:18:54.321Z,49.26
2023-08-15T08:21:22.244Z,52.43
2023-08-15T08:23:50.245Z,47.72
2023-08-15T08:26:18.140Z,47.00
2023-08-15T08:28:46.068Z,50.92
2023-08-15T08:31:14.116Z,50.06
2023-08-15T08:33:43.380Z,47.19
2023-08-15T08:36:11.284Z,45.42
2023-08-15T08:38:39.294Z,43.75
2023-08-15T08:41:07.331Z,44.14
2023-08-15T08:43:35.758Z,43.15
2023-08-15T08:46:06.084Z,43.25
2023-08-15T08:48:36.372Z,42.86
2023-08-15T08:51:07.298Z,38.04
2023-08-15T08:53:35.251Z,41.63
2023-08-15T08:56:03.668Z,39.49
2023-08-15T08:58:32.212Z,42.81
2023-08-15T09:01:01.010Z,43.53
2023-08-15T09:03:29.417Z,38.43
2023-08-15T09:05:57.506Z,38.02
2023-08-15T09:08:26.968Z,39.03
2023-08-15T09:10:54.801Z,37.94
2023-08-15T09:13:23.607Z,37.30
2023-08-15T09:15:52.150Z,34.32
2023-08-15T09:18:23.133Z,37.30
2023-08-15T09:20:51.067Z,37.89
2023-08-15T09:23:18.979Z,36.79
2023-08-15T09:25:49.917Z,34.30
2023-08-15T09:28:18.270Z,35.62
2023-08-15T09:30:53.714Z,34.65
2023-08-15T09:33:21.918Z,40.40
2023-08-15T09:35:58.576Z,41.46
2023-08-15T09:38:27.880Z,41.36
2023-08-15T09:40:57.222Z,42.01
2023-08-15T09:43:25.278Z,41.71
2023-08-15T09:45:53.436Z,38.58
2023-08-15T09:48:21.757Z,39.27
2023-08-15T09:50:50.406Z,41.17
2023-08-15T09:53:18.494Z,40.16
2023-08-15T09:55:46.690Z,41.25
2023-08-15T09:58:17.788Z,45.74
2023-08-15T10:00:46.746Z,46.81
2023-08-15T10:03:17.141Z,47.04
2023-08-15T10:05:47.741Z,48.15
2023-08-15T10:08:15.858Z,48.76
2023-08-15T10:10:44.555Z,50.05
2023-08-15T10:13:12.746Z,51.51
2023-08-15T10:15:42.388Z,53.25
2023-08-15T10:18:11.408Z,55.31
2023-08-15T10:20:41.343Z,56.58
2023-08-15T10:23:10.620Z,58.28
2023-08-15T10:25:40.534Z,59.38
2023-08-15T10:28:13.340Z,59.58
2023-08-15T10:30:50.858Z,58.79
2023-08-15T10:33:21.267Z,58.08
2023-08-15T10:35:52.041Z,58.81
2023-08-15T10:38:22.082Z,59.61
2023-08-15T10:40:51.234Z,59.51
2023-08-15T10:43:19.180Z,58.49
2023-08-15T10:45:51.842Z,59.51
2023-08-15T10:48:41.065Z,61.62
2023-08-15T10:51:22.364Z,64.25
2023-08-15T10:53:50.771Z,64.46
2023-08-15T10:56:19.843Z,64.68
2023-08-15T10:58:48.161Z,61.06
2023-08-15T11:01:19.875Z,56.44
2023-08-15T11:03:49.596Z,51.39
2023-08-15T11:06:17.871Z,48.54
2023-08-15T11:08:48.233Z,47.45
2023-08-15T11:11:17.246Z,49.76
2023-08-15T11:13:47.065Z,48.78
2023-08-15T11:16:16.811Z,53.43
2023-08-15T11:18:46.525Z,54.20
2023-08-15T11:21:15.524Z,54.05
2023-08-15T11:23:43.856Z,52.44
2023-08-15T11:26:13.211Z,48.64
2023-08-15T11:28:41.144Z,47.74
2023-08-15T11:31:21.904Z,49.05
2023-08-15T11:33:53.393Z,48.87
2023-08-15T11:36:23.044Z,48.43
2023-08-15T11:38:50.963Z,49.65
2023-08-15T11:41:19.054Z,49.50
2023-08-15T11:43:47.161Z,50.00
2023-08-15T11:46:15.371Z,48.61
2023-08-15T11:48:45.466Z,45.90
2023-08-15T11:51:20.488Z,47.10
2023-08-15T11:53:52.091Z,48.86
2023-08-15T11:56:20.021Z,49.58
2023-08-15T11:58:47.948Z,47.77
2023-08-15T12:01:16.482Z,47.83
2023-08-15T12:03:44.506Z,48.84
2023-08-15T12:06:15.650Z,48.26
2023-08-15T12:08:46.302Z,48.64
2023-08-15T12:11:15.816Z,49.70
2023-08-15T12:13:44.107Z,50.35
2023-08-15T12:16:12.249Z,50.24
2023-08-15T12:18:40.838Z,49.67
2023-08-15T12:21:13.267Z,49.45
2023-08-15T12:23:43.335Z,49.32
2023-08-15T12:26:11.626Z,46.40
2023-08-15T12:28:39.682Z,46.86
2023-08-15T12:31:07.892Z,45.80
2023-08-15T12:33:47.392Z,46.19
2023-08-15T12:36:16.608Z,45.48
2023-08-15T12:38:46.084Z,45.07
2023-08-15T12:41:15.267Z,45.88
2023-08-15T12:43:43.931Z,46.11
2023-08-15T12:46:12.368Z,46.18
2023-08-15T12:48:40.362Z,46.48
2023-08-15T12:51:08.285Z,47.12
2023-08-15T12:53:36.357Z,47.88
2023-08-15T12:56:06.097Z,47.04
2023-08-15T12:58:34.045Z,45.82
2023-08-15T13:01:02.525Z,46.38
2023-08-15T13:03:31.830Z,46.07
2023-08-15T13:05:59.994Z,43.51
2023-08-15T13:08:27.913Z,43.37
2023-08-15T13:10:56.456Z,43.21
2023-08-15T13:13:25.918Z,44.15
2023-08-15T13:15:55.981Z,42.92
2023-08-15T13:18:24.055Z,43.45
2023-08-15T13:20:52.018Z,40.61
2023-08-15T13:23:22.636Z,42.13
2023-08-15T13:25:50.638Z,42.36
2023-08-15T13:28:18.669Z,41.62
2023-08-15T13:30:48.566Z,40.93
2023-08-15T13:33:17.604Z,40.41
2023-08-15T13:35:46.694Z,39.69
2023-08-15T13:38:14.952Z,41.87
2023-08-15T13:40:42.958Z,39.39
2023-08-15T13:43:10.815Z,39.77
2023-08-15T13:45:38.794Z,38.54
2023-08-15T13:48:08.770Z,38.40
2023-08-15T13:50:36.864Z,39.00
2023-08-15T13:53:04.967Z,38.30
2023-08-15T13:55:34.433Z,39.01
2023-08-15T13:58:02.922Z,37.94
2023-08-15T14:00:33.240Z,37.69
2023-08-15T14:03:01.256Z,40.07
2023-08-15T14:05:30.651Z,38.69
2023-08-15T14:07:58.525Z,38.22
2023-08-15T14:10:26.674Z,38.18
2023-08-15T14:12:54.559Z,36.36
2023-08-15T14:15:22.768Z,38.10
2023-08-15T14:17:50.754Z,37.25
2023-08-15T14:20:20.011Z,36.75
2023-08-15T14:22:49.299Z,36.38
2023-08-15T14:25:17.506Z,36.27
2023-08-15T14:27:45.604Z,35.87
2023-08-15T14:30:14.813Z,36.31
2023-08-15T14:32:42.994Z,35.81
2023-08-15T14:35:11.007Z,36.47
2023-08-15T14:37:40.369Z,36.93
2023-08-15T14:40:10.617Z,37.46
2023-08-15T14:42:39.122Z,36.20
2023-08-15T14:45:10.831Z,36.41
2023-08-15T14:47:40.069Z,35.89
2023-08-15T14:50:08.885Z,35.63
2023-08-15T14:52:41.946Z,36.90
2023-08-15T14:55:12.384Z,35.42
2023-08-15T14:57:40.744Z,34.92
2023-08-15T15:00:10.233Z,34.89
2023-08-15T15:02:39.230Z,35.21
2023-08-15T15:05:08.483Z,34.09
2023-08-15T15:07:36.439Z,35.77
2023-08-15T15:10:04.553Z,36.04
2023-08-15T15:12:34.079Z,35.97
2023-08-15T15:15:02.023Z,37.24
2023-08-15T15:17:31.018Z,37.06
2023-08-15T15:19:59.019Z,37.93
2023-08-15T15:22:26.928Z,39.13
2023-08-15T15:24:55.117Z,40.32
2023-08-15T15:27:23.033Z,41.90
2023-08-15T15:29:52.274Z,41.67
2023-08-15T15:32:20.438Z,41.66
2023-08-15T15:34:48.550Z,41.47
2023-08-15T15:37:16.477Z,41.29
2023-08-15T15:39:44.448Z,42.23
2023-08-15T15:42:12.378Z,42.18
2023-08-15T15:44:40.274Z,41.62
2023-08-15T15:47:09.689Z,42.97
2023-08-15T15:49:37.647Z,43.35
2023-08-15T15:52:05.848Z,43.93
2023-08-15T15:54:33.710Z,45.05
2023-08-15T15:57:01.621Z,45.70
2023-08-15T15:59:29.578Z,46.11
2023-08-15T16:01:57.561Z,45.88
2023-08-15T16:04:26.934Z,46.13
2023-08-15T16:06:54.867Z,47.46
2023-08-15T16:09:22.828Z,46.70
2023-08-15T16:11:50.809Z,48.21
2023-08-15T16:14:18.742Z,47.66
2023-08-15T16:16:46.892Z,48.48
2023-08-15T16:19:14.734Z,48.89
2023-08-15T16:21:44.003Z,49.26
2023-08-15T16:24:11.929Z,50.09
2023-08-15T16:26:39.843Z,50.50
2023-08-15T16:29:07.738Z,50.83
2023-08-15T16:31:35.813Z,50.79
2023-08-15T16:34:03.821Z,51.04
2023-08-15T16:36:31.777Z,51.15
2023-08-15T16:39:01.041Z,51.68
2023-08-15T16:41:28.905Z,51.16
2023-08-15T16:43:57.512Z,51.13
2023-08-15T16:46:25.585Z,51.49
2023-08-15T16:48:53.601Z,51.41
2023-08-15T16:51:21.576Z,51.29
2023-08-15T16:53:49.498Z,50.07
2023-08-15T16:56:18.799Z,50.14
2023-08-15T16:58:46.800Z,50.32
2023-08-15T17:01:14.845Z,50.32
2023-08-15T17:03:43.080Z,50.58
2023-08-15T17:06:11.181Z,50.88
2023-08-15T17:08:39.018Z,51.83
2023-08-15T17:11:06.946Z,51.40
2023-08-15T17:13:36.379Z,52.49
2023-08-15T17:16:04.376Z,52.54
2023-08-15T17:18:32.232Z,52.64
2023-08-15T17:21:02.046Z,54.14
2023-08-15T17:23:30.015Z,54.16
2023-08-15T17:25:57.970Z,53.97
2023-08-15T17:28:25.897Z,54.98
2023-08-15T17:30:55.938Z,55.32
2023-08-15T17:33:25.356Z,55.76
2023-08-15T17:35:53.284Z,56.84
2023-08-15T17:38:21.159Z,57.09
2023-08-15T17:40:49.067Z,57.04
2023-08-15T17:43:19.357Z,57.65
2023-08-15T17:45:47.977Z,58.32
2023-08-15T17:48:17.675Z,58.61
2023-08-15T17:50:47.082Z,59.52
2023-08-15T17:53:15.028Z,59.38
2023-08-15T17:55:43.091Z,59.21
2023-08-15T17:58:11.047Z,59.63
2023-08-15T18:00:38.982Z,60.58
2023-08-15T18:03:07.573Z,61.23
2023-08-15T18:05:36.935Z,61.70
2023-08-15T18:08:07.804Z,60.52
2023-08-15T18:10:35.770Z,60.21
2023-08-15T18:13:03.642Z,60.87
2023-08-15T18:15:31.477Z,63.29
2023-08-15T18:17:59.507Z,62.40
2023-08-15T18:20:27.478Z,63.84
2023-08-15T18:22:56.775Z,65.86
2023-08-15T18:25:24.679Z,68.25
2023-08-15T18:27:52.596Z,68.04
2023-08-15T18:30:20.523Z,66.89
2023-08-15T18:32:48.514Z,67.53
2023-08-15T18:35:16.606Z,68.48
2023-08-15T18:37:46.293Z,71.83
2023-08-15T18:40:17.149Z,71.19
2023-08-15T18:42:45.423Z,72.30
2023-08-15T18:45:13.788Z,72.01
2023-08-15T18:47:41.732Z,73.13
2023-08-15T18:50:10.574Z,73.32
2023-08-15T18:52:38.523Z,73.96
2023-08-15T18:55:07.943Z,75.15
2023-08-15T18:57:37.117Z,75.74
2023-08-15T19:00:08.199Z,75.49
2023-08-15T19:02:36.228Z,75.45
2023-08-15T19:05:04.285Z,74.73
2023-08-15T19:07:32.183Z,74.57
2023-08-15T19:10:00.146Z,74.56
2023-08-15T19:12:28.187Z,73.88
2023-08-15T19:14:58.771Z,74.30
2023-08-15T19:17:26.695Z,75.15
2023-08-15T19:19:54.653Z,75.28
2023-08-15T19:22:22.930Z,75.83
2023-08-15T19:24:51.693Z,76.21
2023-08-15T19:27:19.744Z,76.65
2023-08-15T19:29:48.192Z,76.71
2023-08-15T19:32:17.592Z,76.70
2023-08-15T19:34:48.934Z,77.80
2023-08-15T19:37:23.387Z,77.83
2023-08-15T19:39:59.339Z,77.15
2023-08-15T19:42:27.223Z,77.08
2023-08-15T19:44:55.079Z,76.26
2023-08-15T19:47:24.695Z,76.79
2023-08-15T19:49:52.555Z,76.79
2023-08-15T19:52:21.701Z,77.52
2023-08-15T19:54:50.425Z,77.86
2023-08-15T19:57:18.301Z,77.58
2023-08-15T19:59:46.211Z,77.52
2023-08-15T20:02:14.965Z,77.51
2023-08-15T20:04:44.454Z,78.01
2023-08-15T20:07:12.421Z,78.05
2023-08-15T20:09:41.568Z,77.60
2023-08-15T20:12:10.857Z,79.07
2023-08-15T20:14:38.778Z,78.03
2023-08-15T20:17:06.703Z,78.81
2023-08-15T20:19:34.672Z,78.93
2023-08-15T20:22:03.948Z,78.06
2023-08-15T20:24:32.194Z,78.41
2023-08-15T20:27:00.069Z,78.32
2023-08-15T20:29:28.547Z,78.22
2023-08-15T20:31:56.451Z,79.52
2023-08-15T20:34:24.481Z,79.79
2023-08-15T20:36:52.727Z,80.57
2023-08-15T20:39:22.100Z,80.84
2023-08-15T20:41:50.066Z,80.52
2023-08-15T20:44:18.235Z,80.82
2023-08-15T20:46:46.382Z,80.87
2023-08-15T20:49:14.436Z,80.90
2023-08-15T20:51:42.324Z,81.35
2023-08-15T20:54:12.368Z,81.70
2023-08-15T20:56:41.734Z,82.44
2023-08-15T20:59:09.763Z,83.04
2023-08-15T21:01:37.671Z,84.17
2023-08-15T21:04:06.470Z,84.07
2023-08-15T21:06:34.494Z,83.63
2023-08-15T21:09:02.397Z,83.18
2023-08-15T21:11:30.362Z,84.51
2023-08-15T21:13:59.985Z,85.20
2023-08-15T21:16:28.146Z,85.95
2023-08-15T21:18:56.197Z,86.21
2023-08-15T21:21:24.151Z,87.39
2023-08-15T21:23:52.000Z,87.79
2023-08-15T21:26:19.957Z,88.13
2023-08-15T21:28:47.905Z,87.76
2023-08-15T21:31:17.294Z,88.16
2023-08-15T21:33:45.232Z,88.96
2023-08-15T21:36:13.104Z,89.43
2023-08-15T21:38:41.830Z,90.31
2023-08-15T21:41:09.751Z,89.44
2023-08-15T21:43:38.067Z,89.98
2023-08-15T21:46:06.010Z,90.54
2023-08-15T21:48:35.456Z,90.85
2023-08-15T21:51:03.596Z,90.43
2023-08-15T21:53:31.520Z,90.55
2023-08-15T21:55:59.470Z,90.68
2023-08-15T21:58:27.346Z,90.46
2023-08-15T22:00:55.248Z,90.53
2023-08-15T22:03:23.180Z,90.45
2023-08-15T22:05:52.495Z,92.18
2023-08-15T22:08:20.434Z,92.50
2023-08-15T22:10:48.662Z,92.81
2023-08-15T22:13:16.593Z,93.21
2023-08-15T22:15:45.614Z,94.02
2023-08-15T22:18:20.271Z,94.31
2023-08-15T22:20:49.421Z,93.52
2023-08-15T22:23:18.745Z,93.11
2023-08-15T22:25:46.994Z,93.75
2023-08-15T22:28:15.265Z,94.03
2023-08-15T22:30:43.240Z,93.58
2023-08-15T22:33:11.171Z,93.66
2023-08-15T22:35:39.674Z,93.41
2023-08-15T22:38:08.307Z,93.26
2023-08-15T22:40:37.766Z,93.11
2023-08-15T22:43:07.703Z,93.31
2023-08-15T22:45:35.822Z,92.99
2023-08-15T22:48:03.817Z,93.47
2023-08-15T22:50:31.772Z,93.19
2023-08-15T22:52:59.783Z,92.83
2023-08-15T22:55:29.672Z,92.63
2023-08-15T22:57:58.963Z,92.49
2023-08-15T23:00:27.217Z,92.17
2023-08-15T23:02:55.217Z,92.41
2023-08-15T23:05:23.180Z,92.64
2023-08-15T23:07:51.085Z,93.25
2023-08-15T23:10:19.134Z,92.70
2023-08-15T23:12:47.053Z,93.21
2023-08-15T23:15:16.330Z,94.10
2023-08-15T23:17:44.310Z,94.75
2023-08-15T23:20:12.948Z,94.13
2023-08-15T23:22:40.903Z,94.41
2023-08-15T23:25:11.261Z,94.22
2023-08-15T23:27:39.931Z,94.60
2023-08-15T23:30:09.595Z,94.50
2023-08-15T23:32:39.276Z,94.49
2023-08-15T23:35:07.991Z,94.44
2023-08-15T23:37:36.429Z,94.79
2023-08-15T23:40:04.896Z,94.66
2023-08-15T23:42:33.224Z,93.89
2023-08-15T23:45:01.176Z,94.43
2023-08-15T23:47:29.106Z,94.46
2023-08-15T23:49:58.836Z,93.23
2023-08-15T23:52:27.095Z,93.24
2023-08-15T23:54:55.119Z,93.10
2023-08-15T23:57:23.303Z,93.28
2023-08-15T23:59:51.491Z,93.10
